Time;durP1;ratioP1;P1;durP2;ratioP2;P2;SDS_P1;SDS_P2;PMS_P1;PMS_P2;Temp;Humidity;BMP_temperature;BMP_pressure;BME280_temperature;BME280_humidity;BME280_pressure;Samples;Min_cycle;Max_cycle;Signal;HPM_P1;HPM_P2
2022/03/14 00:02:34;;;;;;;10.30;6.10;;;;;;;;;;5030668;28;20543;-87
2022/03/14 00:05:40;;;;;;;10.77;6.20;;;;;;;;;;5030413;28;21176;-87
2022/03/14 00:08:45;;;;;;;8.50;6.27;;;;;;;;;;5047037;28;20593;-85
2022/03/14 00:11:55;;;;;;;8.83;5.73;;;;;;;;;;5039221;28;20589;-86
2022/03/14 00:14:59;;;;;;;10.67;5.90;;;;;;;;;;5038349;28;21072;-86
2022/03/14 00:18:04;;;;;;;9.87;6.70;;;;;;;;;;5041758;28;20622;-85
2022/03/14 00:21:10;;;;;;;11.53;6.27;;;;;;;;;;5053980;28;20646;-86
2022/03/14 00:24:15;;;;;;;8.67;5.67;;;;;;;;;;5029919;28;20606;-87
2022/03/14 00:27:19;;;;;;;8.00;6.13;;;;;;;;;;5044993;28;21135;-85
2022/03/14 00:30:23;;;;;;;8.53;6.03;;;;;;;;;;5053461;28;20593;-85
2022/03/14 00:33:27;;;;;;;8.57;5.80;;;;;;;;;;5053731;28;20550;-87
2022/03/14 00:36:31;;;;;;;10.40;6.47;;;;;;;;;;5052655;28;20625;-86
2022/03/14 00:39:36;;;;;;;14.53;6.67;;;;;;;;;;5033874;28;20535;-87
2022/03/14 00:42:40;;;;;;;7.97;5.57;;;;;;;;;;5053757;28;20578;-85
2022/03/14 00:45:45;;;;;;;9.40;5.63;;;;;;;;;;5052787;28;20617;-87
2022/03/14 00:48:49;;;;;;;12.87;6.67;;;;;;;;;;5052341;28;20593;-87
2022/03/14 00:51:53;;;;;;;9.40;6.47;;;;;;;;;;5033387;28;20539;-85
2022/03/14 00:54:58;;;;;;;11.23;6.63;;;;;;;;;;5021755;28;20946;-87
2022/03/14 00:58:02;;;;;;;9.10;6.27;;;;;;;;;;5033935;28;20543;-87
2022/03/14 01:01:06;;;;;;;8.93;5.83;;;;;;;;;;5034922;28;20650;-87
2022/03/14 01:04:11;;;;;;;8.80;5.70;;;;;;;;;;5076668;28;20933;-86
2022/03/14 01:07:15;;;;;;;10.50;6.40;;;;;;;;;;5053239;28;20589;-85
2022/03/14 01:10:20;;;;;;;10.17;6.93;;;;;;;;;;5051954;28;20573;-87
2022/03/14 01:13:25;;;;;;;9.67;5.50;;;;;;;;;;5052590;28;20586;-87
2022/03/14 01:16:29;;;;;;;8.57;5.83;;;;;;;;;;5041732;28;20625;-85
2022/03/14 01:19:34;;;;;;;12.43;5.93;;;;;;;;;;5053064;28;20598;-85
2022/03/14 01:22:38;;;;;;;7.43;5.80;;;;;;;;;;5052877;28;20578;-85
2022/03/14 01:25:43;;;;;;;10.40;5.77;;;;;;;;;;5040978;28;20625;-87
2022/03/14 01:28:48;;;;;;;7.57;5.37;;;;;;;;;;5051708;28;20597;-85
2022/03/14 01:31:54;;;;;;;8.27;5.80;;;;;;;;;;5040515;28;20534;-87
2022/03/14 01:34:58;;;;;;;10.30;6.20;;;;;;;;;;5032128;28;20539;-87
2022/03/14 01:38:03;;;;;;;10.23;6.20;;;;;;;;;;5027827;28;20594;-85
2022/03/14 01:41:07;;;;;;;7.63;5.10;;;;;;;;;;5040325;28;20621;-85
2022/03/14 01:44:11;;;;;;;9.77;6.17;;;;;;;;;;5052499;28;20542;-85
2022/03/14 01:47:15;;;;;;;12.20;6.27;;;;;;;;;;5052599;28;20585;-85
2022/03/14 01:50:19;;;;;;;8.57;5.50;;;;;;;;;;5052331;28;20582;-85
2022/03/14 01:53:24;;;;;;;10.70;6.40;;;;;;;;;;5063890;28;20585;-87
2022/03/14 01:56:28;;;;;;;12.40;6.30;;;;;;;;;;5039893;28;20641;-86
2022/03/14 01:59:34;;;;;;;8.13;5.90;;;;;;;;;;5037962;28;20586;-87
2022/03/14 02:02:53;;;;;;;12.07;6.07;;;;;;;;;;5062921;28;20523;-85
2022/03/14 02:05:58;;;;;;;11.60;6.27;;;;;;;;;;5039451;28;20649;-87
2022/03/14 02:09:03;;;;;;;9.90;5.80;;;;;;;;;;5039956;28;21068;-87
2022/03/14 02:12:09;;;;;;;10.37;6.10;;;;;;;;;;5039398;28;20929;-88
2022/03/14 02:15:13;;;;;;;10.90;6.30;;;;;;;;;;5050947;28;20645;-87
2022/03/14 02:18:18;;;;;;;10.17;5.90;;;;;;;;;;5062693;28;20546;-85
2022/03/14 02:21:22;;;;;;;14.27;7.37;;;;;;;;;;5039849;28;20621;-87
2022/03/14 02:24:28;;;;;;;9.90;6.43;;;;;;;;;;5039695;28;20586;-85
2022/03/14 02:27:32;;;;;;;9.10;6.03;;;;;;;;;;5039744;28;20902;-86
2022/03/14 02:30:37;;;;;;;10.60;6.67;;;;;;;;;;5040215;28;20531;-87
2022/03/14 02:33:41;;;;;;;12.07;6.43;;;;;;;;;;5020479;28;20607;-85
2022/03/14 02:36:45;;;;;;;10.83;6.77;;;;;;;;;;5049435;28;21012;-85
2022/03/14 02:39:50;;;;;;;12.93;7.70;;;;;;;;;;5051733;28;20546;-85
2022/03/14 02:42:54;;;;;;;10.53;7.37;;;;;;;;;;5039491;28;20538;-87
2022/03/14 02:45:59;;;;;;;12.90;6.77;;;;;;;;;;5050954;28;20664;-87
2022/03/14 02:49:04;;;;;;;11.50;7.43;;;;;;;;;;5050328;28;21171;-87
2022/03/14 02:52:09;;;;;;;13.47;7.57;;;;;;;;;;5050561;28;21175;-89
2022/03/14 02:55:12;;;;;;;11.47;7.60;;;;;;;;;;5050500;28;21219;-85
2022/03/14 02:58:16;;;;;;;13.00;7.30;;;;;;;;;;5039040;28;20594;-86
2022/03/14 03:01:23;;;;;;;11.23;7.27;;;;;;;;;;5062196;28;20965;-85
2022/03/14 03:04:28;;;;;;;10.00;7.10;;;;;;;;;;5040435;28;21100;-86
2022/03/14 03:07:34;;;;;;;10.40;6.63;;;;;;;;;;5040460;28;20542;-85
2022/03/14 03:10:38;;;;;;;12.10;6.77;;;;;;;;;;5051745;28;20539;-86
2022/03/14 03:13:43;;;;;;;9.03;6.20;;;;;;;;;;5020684;28;20539;-85
2022/03/14 03:16:49;;;;;;;9.87;6.73;;;;;;;;;;5040601;28;20648;-86
2022/03/14 03:19:55;;;;;;;10.43;6.67;;;;;;;;;;5030671;28;20582;-85
2022/03/14 03:23:00;;;;;;;10.67;6.53;;;;;;;;;;5061949;28;20582;-85
2022/03/14 03:26:04;;;;;;;12.63;6.87;;;;;;;;;;5039716;28;20621;-85
2022/03/14 03:29:11;;;;;;;8.90;6.63;;;;;;;;;;5051178;28;20530;-86
2022/03/14 03:32:17;;;;;;;14.57;7.10;;;;;;;;;;5039449;28;20586;-85
2022/03/14 03:35:21;;;;;;;16.20;6.67;;;;;;;;;;5050667;28;20613;-85
2022/03/14 03:38:26;;;;;;;10.60;6.87;;;;;;;;;;5061684;28;20582;-85
2022/03/14 03:41:30;;;;;;;10.73;6.60;;;;;;;;;;5050885;28;20590;-85
2022/03/14 03:44:34;;;;;;;9.87;6.40;;;;;;;;;;5039583;28;20554;-86
2022/03/14 03:47:43;;;;;;;9.20;6.53;;;;;;;;;;5039001;28;20597;-86
2022/03/14 03:50:47;;;;;;;11.17;7.40;;;;;;;;;;5039609;28;20543;-86
2022/03/14 03:53:52;;;;;;;11.40;7.17;;;;;;;;;;5039528;28;21076;-86
2022/03/14 03:56:56;;;;;;;14.03;7.47;;;;;;;;;;5038696;28;20656;-86
2022/03/14 04:00:04;;;;;;;12.50;7.47;;;;;;;;;;5050338;28;20593;-86
2022/03/14 04:03:20;;;;;;;10.80;7.37;;;;;;;;;;5067034;28;20534;-85
2022/03/14 04:06:29;;;;;;;14.00;8.37;;;;;;;;;;5053757;28;20617;-85
2022/03/14 04:09:33;;;;;;;11.87;7.27;;;;;;;;;;5053508;28;20585;-86
2022/03/14 04:12:39;;;;;;;14.10;7.80;;;;;;;;;;5042484;28;20581;-86
2022/03/14 04:15:52;;;;;;;13.83;8.47;;;;;;;;;;5043752;28;20613;-86
2022/03/14 04:18:56;;;;;;;10.30;7.40;;;;;;;;;;5043047;28;20894;-85
2022/03/14 04:22:00;;;;;;;16.07;8.60;;;;;;;;;;5054178;28;20621;-85
2022/03/14 04:25:07;;;;;;;12.63;8.50;;;;;;;;;;5054362;28;20546;-86
2022/03/14 04:28:12;;;;;;;15.00;8.77;;;;;;;;;;5053368;28;20606;-85
2022/03/14 04:31:16;;;;;;;15.00;8.50;;;;;;;;;;5042548;28;20604;-86
2022/03/14 04:34:21;;;;;;;13.70;8.23;;;;;;;;;;5042490;28;20894;-85
2022/03/14 04:37:25;;;;;;;13.67;8.20;;;;;;;;;;5034487;28;20594;-87
2022/03/14 04:40:32;;;;;;;16.40;9.03;;;;;;;;;;5052700;28;20933;-87
2022/03/14 04:43:36;;;;;;;14.43;8.93;;;;;;;;;;5040934;28;20578;-87
2022/03/14 04:46:40;;;;;;;16.57;9.33;;;;;;;;;;5041589;28;20984;-87
2022/03/14 04:49:44;;;;;;;14.10;8.97;;;;;;;;;;5053315;28;20550;-87
2022/03/14 04:52:49;;;;;;;20.20;10.10;;;;;;;;;;5041510;28;20593;-86
2022/03/14 04:55:53;;;;;;;17.57;10.53;;;;;;;;;;5053356;28;21012;-87
2022/03/14 04:58:57;;;;;;;20.17;9.70;;;;;;;;;;5052715;28;20538;-87
2022/03/14 05:02:01;;;;;;;14.53;9.40;;;;;;;;;;5041253;28;20590;-87
2022/03/14 05:05:08;;;;;;;15.97;10.20;;;;;;;;;;5040680;28;20593;-87
2022/03/14 05:08:12;;;;;;;16.13;10.10;;;;;;;;;;5040907;28;21091;-87
2022/03/14 05:11:17;;;;;;;17.27;10.40;;;;;;;;;;5040407;28;20948;-87
2022/03/14 05:14:22;;;;;;;16.57;10.77;;;;;;;;;;5040654;28;20534;-87
2022/03/14 05:17:26;;;;;;;16.40;9.20;;;;;;;;;;5040192;28;20624;-86
2022/03/14 05:20:30;;;;;;;18.23;10.43;;;;;;;;;;5041090;28;20601;-87
2022/03/14 05:23:35;;;;;;;15.23;9.33;;;;;;;;;;5052255;28;20538;-87
2022/03/14 05:26:39;;;;;;;17.93;11.20;;;;;;;;;;5051502;28;20645;-87
2022/03/14 05:29:44;;;;;;;18.07;10.20;;;;;;;;;;5051846;28;20593;-87
2022/03/14 05:32:48;;;;;;;17.63;10.03;;;;;;;;;;5051677;28;20600;-87
2022/03/14 05:35:54;;;;;;;18.40;10.53;;;;;;;;;;5040618;28;20642;-87
2022/03/14 05:38:58;;;;;;;23.33;15.30;;;;;;;;;;5040219;28;20589;-87
2022/03/14 05:42:02;;;;;;;19.20;13.03;;;;;;;;;;5051515;28;20632;-87
2022/03/14 05:45:08;;;;;;;22.30;12.87;;;;;;;;;;5051261;28;20660;-87
2022/03/14 05:48:13;;;;;;;21.27;14.03;;;;;;;;;;5039998;28;21209;-87
2022/03/14 05:51:17;;;;;;;23.67;12.53;;;;;;;;;;5039595;28;20612;-87
2022/03/14 05:54:23;;;;;;;19.50;11.23;;;;;;;;;;5036234;28;20597;-87
2022/03/14 05:57:26;;;;;;;22.03;12.13;;;;;;;;;;5063005;28;20585;-88
2022/03/14 06:00:31;;;;;;;17.93;11.27;;;;;;;;;;5040150;28;20187;-87
2022/03/14 06:03:36;;;;;;;16.27;10.80;;;;;;;;;;5039748;28;20613;-87
2022/03/14 06:06:40;;;;;;;21.77;11.53;;;;;;;;;;5039008;28;20230;-87
2022/03/14 06:09:44;;;;;;;14.70;10.13;;;;;;;;;;5050575;28;20622;-87
2022/03/14 06:12:48;;;;;;;14.73;10.40;;;;;;;;;;5039039;28;20594;-87
2022/03/14 06:15:52;;;;;;;15.90;10.27;;;;;;;;;;5055938;28;20215;-86
2022/03/14 06:18:57;;;;;;;15.90;10.60;;;;;;;;;;5050905;28;20187;-86
2022/03/14 06:22:01;;;;;;;18.33;10.50;;;;;;;;;;5051028;28;20633;-86
2022/03/14 06:25:05;;;;;;;15.37;9.80;;;;;;;;;;5073980;28;20256;-87
2022/03/14 06:28:09;;;;;;;20.67;11.07;;;;;;;;;;5050874;28;20626;-86
2022/03/14 06:31:16;;;;;;;17.33;10.57;;;;;;;;;;5046461;28;20281;-86
2022/03/14 06:34:20;;;;;;;20.57;13.53;;;;;;;;;;5054369;28;20183;-86
2022/03/14 06:37:25;;;;;;;27.20;14.70;;;;;;;;;;5039305;28;20187;-86
2022/03/14 06:40:29;;;;;;;22.53;14.17;;;;;;;;;;5050523;28;20188;-86
2022/03/14 06:43:35;;;;;;;17.33;11.83;;;;;;;;;;5050566;28;20222;-86
2022/03/14 06:46:39;;;;;;;23.80;12.20;;;;;;;;;;5050763;28;20549;-86
2022/03/14 06:49:44;;;;;;;20.70;11.80;;;;;;;;;;5039249;28;20661;-86
2022/03/14 06:52:50;;;;;;;22.77;11.67;;;;;;;;;;5039391;28;20187;-86
2022/03/14 06:55:54;;;;;;;20.70;11.60;;;;;;;;;;5040353;28;20245;-86
2022/03/14 06:58:58;;;;;;;20.60;12.27;;;;;;;;;;5063161;28;20190;-85
2022/03/14 07:02:04;;;;;;;18.10;12.03;;;;;;;;;;5064146;28;20208;-85
2022/03/14 07:05:16;;;;;;;22.23;14.83;;;;;;;;;;5051406;28;20230;-85
2022/03/14 07:08:20;;;;;;;25.17;16.00;;;;;;;;;;5041725;28;20184;-85
2022/03/14 07:11:25;;;;;;;19.93;13.43;;;;;;;;;;5051119;28;20204;-86
2022/03/14 07:14:29;;;;;;;22.20;13.37;;;;;;;;;;5039993;28;20171;-86
2022/03/14 07:17:33;;;;;;;26.83;13.83;;;;;;;;;;5040290;28;20195;-86
2022/03/14 07:20:38;;;;;;;26.10;13.93;;;;;;;;;;5051503;28;20206;-86
2022/03/14 07:23:42;;;;;;;18.87;13.27;;;;;;;;;;5039693;28;20215;-85
2022/03/14 07:26:46;;;;;;;20.37;13.03;;;;;;;;;;5051018;28;20223;-86
2022/03/14 07:29:50;;;;;;;20.27;12.83;;;;;;;;;;5040074;28;20191;-86
2022/03/14 07:32:55;;;;;;;17.43;12.07;;;;;;;;;;5052070;28;20540;-86
2022/03/14 07:35:59;;;;;;;27.23;15.83;;;;;;;;;;5052436;28;20706;-86
2022/03/14 07:39:05;;;;;;;22.80;14.87;;;;;;;;;;5044548;28;20212;-86
2022/03/14 07:42:09;;;;;;;26.43;17.93;;;;;;;;;;5036583;28;20215;-86
2022/03/14 07:45:16;;;;;;;34.20;20.10;;;;;;;;;;5078362;28;20222;-86
2022/03/14 07:48:20;;;;;;;25.83;16.27;;;;;;;;;;5077886;28;20175;-85
2022/03/14 07:51:28;;;;;;;25.47;13.77;;;;;;;;;;5066805;28;20187;-86
2022/03/14 07:54:32;;;;;;;18.00;12.07;;;;;;;;;;5042179;28;20666;-86
2022/03/14 07:57:38;;;;;;;17.83;12.67;;;;;;;;;;5043903;28;20186;-86
2022/03/14 08:00:42;;;;;;;17.60;12.27;;;;;;;;;;5055250;28;20677;-86
2022/03/14 08:03:46;;;;;;;16.97;11.07;;;;;;;;;;5048922;28;20211;-87
2022/03/14 08:06:51;;;;;;;18.10;11.20;;;;;;;;;;5045991;28;20717;-86
2022/03/14 08:09:55;;;;;;;18.10;10.83;;;;;;;;;;5064679;28;20202;-86
2022/03/14 08:12:59;;;;;;;18.07;11.60;;;;;;;;;;5034414;28;20202;-86
2022/03/14 08:16:04;;;;;;;14.63;9.67;;;;;;;;;;5033940;28;20231;-86
2022/03/14 08:19:08;;;;;;;13.43;9.33;;;;;;;;;;5045514;28;20674;-86
2022/03/14 08:22:13;;;;;;;13.47;9.13;;;;;;;;;;5046448;28;20191;-86
2022/03/14 08:25:17;;;;;;;12.93;9.23;;;;;;;;;;5022572;28;20298;-86
2022/03/14 08:28:21;;;;;;;15.77;8.40;;;;;;;;;;5047086;28;20217;-86
2022/03/14 08:31:26;;;;;;;12.23;8.83;;;;;;;;;;5065312;28;20202;-86
2022/03/14 08:34:30;;;;;;;10.93;7.60;;;;;;;;;;5052056;28;20215;-86
2022/03/14 08:37:40;;;;;;;11.10;7.87;;;;;;;;;;5053881;28;20183;-86
2022/03/14 08:40:44;;;;;;;9.73;7.17;;;;;;;;;;5053349;28;20200;-86
2022/03/14 08:43:48;;;;;;;12.27;7.60;;;;;;;;;;5042552;28;20203;-86
2022/03/14 08:46:52;;;;;;;41.23;24.20;;;;;;;;;;5053824;28;20223;-86
2022/03/14 08:49:56;;;;;;;11.70;6.60;;;;;;;;;;5042342;28;20182;-85
2022/03/14 08:53:00;;;;;;;6.20;4.80;;;;;;;;;;5038097;28;20658;-86
2022/03/14 08:56:04;;;;;;;7.77;5.73;;;;;;;;;;5027458;28;20224;-85
2022/03/14 08:59:12;;;;;;;10.70;6.53;;;;;;;;;;5033106;28;20180;-85
2022/03/14 09:02:16;;;;;;;8.37;6.10;;;;;;;;;;5022309;28;20180;-85
2022/03/14 09:05:22;;;;;;;9.13;5.77;;;;;;;;;;5033725;28;20216;-86
2022/03/14 09:08:27;;;;;;;8.90;6.37;;;;;;;;;;5033053;28;20172;-86
2022/03/14 09:11:31;;;;;;;8.50;6.23;;;;;;;;;;5044712;28;20176;-86
2022/03/14 09:14:35;;;;;;;11.60;7.40;;;;;;;;;;5032723;28;20184;-86
2022/03/14 09:17:52;;;;;;;7.80;6.40;;;;;;;;;;5073030;28;20199;-86
2022/03/14 09:20:56;;;;;;;8.30;5.87;;;;;;;;;;5050561;28;20192;-87
2022/03/14 09:24:00;;;;;;;7.47;5.50;;;;;;;;;;5040030;28;20686;-87
2022/03/14 09:27:05;;;;;;;6.20;5.03;;;;;;;;;;5040103;28;20219;-86
2022/03/14 09:30:11;;;;;;;20.17;5.80;;;;;;;;;;5074896;28;20183;-86
2022/03/14 09:33:15;;;;;;;7.50;5.83;;;;;;;;;;5051560;28;20176;-86
2022/03/14 09:36:20;;;;;;;7.07;5.87;;;;;;;;;;5040570;28;20219;-86
2022/03/14 09:39:24;;;;;;;9.07;5.63;;;;;;;;;;5052833;28;20194;-86
2022/03/14 09:42:29;;;;;;;6.60;5.03;;;;;;;;;;5040848;28;20203;-87
2022/03/14 09:45:35;;;;;;;7.53;6.13;;;;;;;;;;5037629;28;20239;-86
2022/03/14 09:48:43;;;;;;;7.70;5.90;;;;;;;;;;5020119;28;20188;-87
2022/03/14 09:51:50;;;;;;;8.97;5.80;;;;;;;;;;5042455;28;20192;-86
2022/03/14 09:54:54;;;;;;;10.63;5.37;;;;;;;;;;5031193;28;20192;-86
2022/03/14 09:57:59;;;;;;;7.70;5.27;;;;;;;;;;5042569;28;20184;-87
2022/03/14 10:01:04;;;;;;;9.80;6.47;;;;;;;;;;5042021;28;20176;-87
2022/03/14 10:04:09;;;;;;;11.57;6.43;;;;;;;;;;5041205;28;20216;-86
2022/03/14 10:07:13;;;;;;;6.30;4.97;;;;;;;;;;5025641;28;20660;-85
2022/03/14 10:10:17;;;;;;;7.27;5.47;;;;;;;;;;5022741;28;20200;-85
2022/03/14 10:13:21;;;;;;;7.90;6.23;;;;;;;;;;5022945;28;20169;-85
2022/03/14 10:16:26;;;;;;;8.10;6.20;;;;;;;;;;5027335;28;20710;-85
2022/03/14 10:19:32;;;;;;;4.60;4.10;;;;;;;;;;5020011;28;20176;-85
2022/03/14 10:22:40;;;;;;;5.67;3.37;;;;;;;;;;5019936;28;20536;-85
2022/03/14 10:25:44;;;;;;;4.07;2.80;;;;;;;;;;5053526;28;20215;-85
2022/03/14 10:28:55;;;;;;;3.07;2.63;;;;;;;;;;5041683;28;20200;-86
2022/03/14 10:32:01;;;;;;;5.77;2.63;;;;;;;;;;5024736;28;20180;-86
2022/03/14 10:35:07;;;;;;;5.47;2.20;;;;;;;;;;5030862;28;20623;-86
2022/03/14 10:38:13;;;;;;;2.17;1.97;;;;;;;;;;5030772;28;20200;-86
2022/03/14 10:41:17;;;;;;;5.17;1.93;;;;;;;;;;5018945;28;20531;-86
2022/03/14 10:44:23;;;;;;;2.40;2.20;;;;;;;;;;5019263;28;20204;-86
2022/03/14 10:47:28;;;;;;;2.30;2.10;;;;;;;;;;5030434;28;20627;-86
2022/03/14 10:50:35;;;;;;;6.60;5.90;;;;;;;;;;5018844;28;20196;-86
2022/03/14 10:53:45;;;;;;;7.80;7.10;;;;;;;;;;5030432;28;20184;-86
2022/03/14 10:57:20;;;;;;;2.77;2.30;;;;;;;;;;5041287;28;20215;-86
2022/03/14 11:00:23;;;;;;;4.17;1.97;;;;;;;;;;5053672;28;20184;-86
2022/03/14 11:03:31;;;;;;;1.30;1.20;;;;;;;;;;5019044;28;20216;-86
2022/03/14 11:06:36;;;;;;;1.70;1.40;;;;;;;;;;5018717;28;20216;-86
2022/03/14 11:09:45;;;;;;;3.03;1.03;;;;;;;;;;5030305;28;20516;-86
2022/03/14 11:12:54;;;;;;;2.17;1.00;;;;;;;;;;5030162;28;20176;-88
2022/03/14 11:15:58;;;;;;;1.80;1.10;;;;;;;;;;5018531;28;20220;-88
2022/03/14 11:19:03;;;;;;;3.37;0.80;;;;;;;;;;5029939;28;20179;-88
2022/03/14 11:22:12;;;;;;;1.30;0.97;;;;;;;;;;5018797;28;20180;-88
2022/03/14 11:25:16;;;;;;;1.20;0.83;;;;;;;;;;5029965;28;20208;-88
2022/03/14 11:28:23;;;;;;;1.23;0.93;;;;;;;;;;5019543;28;20172;-88
2022/03/14 11:31:27;;;;;;;1.70;1.10;;;;;;;;;;5030272;28;20180;-88
2022/03/14 11:34:31;;;;;;;1.40;1.00;;;;;;;;;;5030360;28;20164;-88
2022/03/14 11:37:36;;;;;;;2.60;1.30;;;;;;;;;;5018960;28;20184;-87
2022/03/14 11:40:40;;;;;;;1.20;0.90;;;;;;;;;;5019384;28;20188;-87
2022/03/14 11:43:45;;;;;;;2.50;1.13;;;;;;;;;;5018787;28;20559;-88
2022/03/14 11:46:52;;;;;;;0.90;0.90;;;;;;;;;;5029642;28;20211;-86
2022/03/14 11:49:58;;;;;;;1.00;0.90;;;;;;;;;;5019034;28;20184;-86
2022/03/14 11:53:03;;;;;;;1.60;0.90;;;;;;;;;;5019077;28;20619;-86
2022/03/14 11:56:08;;;;;;;1.63;1.30;;;;;;;;;;5029792;28;20228;-86
2022/03/14 11:59:26;;;;;;;11.53;1.40;;;;;;;;;;5042524;28;20536;-86
2022/03/14 12:02:41;;;;;;;2.07;0.90;;;;;;;;;;5019827;28;20187;-86
2022/03/14 12:05:46;;;;;;;3.67;0.70;;;;;;;;;;5019042;28;20213;-86
2022/03/14 12:08:50;;;;;;;0.70;0.50;;;;;;;;;;5018797;28;20176;-86
2022/03/14 12:11:55;;;;;;;5.50;0.57;;;;;;;;;;5030027;28;20181;-86
2022/03/14 12:15:00;;;;;;;0.90;0.40;;;;;;;;;;5029982;28;20188;-86
2022/03/14 12:18:43;;;;;;;0.50;0.37;;;;;;;;;;5030026;28;20200;-86
2022/03/14 12:21:52;;;;;;;0.50;0.43;;;;;;;;;;4974014;28;20206;-86
2022/03/14 12:24:57;;;;;;;2.03;0.60;;;;;;;;;;5021680;28;20220;-86
2022/03/14 12:28:33;;;;;;;0.60;0.60;;;;;;;;;;5043455;28;20235;-87
2022/03/14 12:31:37;;;;;;;0.43;0.43;;;;;;;;;;5054578;28;20635;-87
2022/03/14 12:34:42;;;;;;;2.50;0.60;;;;;;;;;;5032846;28;20196;-87
2022/03/14 12:37:50;;;;;;;0.40;0.40;;;;;;;;;;5032962;28;20196;-86
2022/03/14 12:40:56;;;;;;;0.50;0.50;;;;;;;;;;5044269;28;20544;-86
2022/03/14 12:44:15;;;;;;;6.80;0.63;;;;;;;;;;5054865;28;20212;-87
2022/03/14 12:47:19;;;;;;;1.17;0.50;;;;;;;;;;5043473;28;20631;-86
2022/03/14 12:50:42;;;;;;;1.60;0.40;;;;;;;;;;5032282;28;20192;-87
2022/03/14 12:53:51;;;;;;;1.33;0.30;;;;;;;;;;5045076;28;20193;-86
2022/03/14 12:56:57;;;;;;;1.50;0.40;;;;;;;;;;5045800;28;20224;-87
2022/03/14 13:00:01;;;;;;;0.50;0.40;;;;;;;;;;5046483;28;20184;-86
2022/03/14 13:03:08;;;;;;;4.43;0.50;;;;;;;;;;5020927;28;20180;-87
2022/03/14 13:06:12;;;;;;;1.07;0.40;;;;;;;;;;5032277;28;20208;-86
2022/03/14 13:09:30;;;;;;;0.50;0.43;;;;;;;;;;5032517;28;20176;-86
2022/03/14 13:12:34;;;;;;;0.40;0.40;;;;;;;;;;5020573;28;20547;-86
2022/03/14 13:15:40;;;;;;;1.63;0.47;;;;;;;;;;5021756;28;20207;-86
2022/03/14 13:18:50;;;;;;;1.53;0.50;;;;;;;;;;5033498;28;20172;-86
2022/03/14 13:21:55;;;;;;;2.77;0.60;;;;;;;;;;5032649;28;20188;-86
2022/03/14 13:24:59;;;;;;;6.47;0.40;;;;;;;;;;5032090;28;20208;-86
2022/03/14 13:28:03;;;;;;;3.43;0.37;;;;;;;;;;5032653;28;20176;-86
2022/03/14 13:31:09;;;;;;;0.50;0.50;;;;;;;;;;5033548;28;20184;-86
2022/03/14 13:34:14;;;;;;;1.07;0.50;;;;;;;;;;5021222;28;20184;-86
2022/03/14 13:37:18;;;;;;;0.70;0.60;;;;;;;;;;5043335;28;20188;-86
2022/03/14 13:40:23;;;;;;;0.57;0.40;;;;;;;;;;5021403;28;20520;-86
2022/03/14 13:43:27;;;;;;;0.70;0.50;;;;;;;;;;5032816;28;20192;-86
2022/03/14 13:46:35;;;;;;;0.60;0.40;;;;;;;;;;5020348;28;20220;-86
2022/03/14 13:49:43;;;;;;;1.60;0.50;;;;;;;;;;5032325;28;20196;-87
2022/03/14 13:52:51;;;;;;;0.90;0.40;;;;;;;;;;5022743;28;20184;-86
2022/03/14 13:55:57;;;;;;;0.43;0.43;;;;;;;;;;5014794;28;20224;-86
2022/03/14 13:59:01;;;;;;;2.50;0.60;;;;;;;;;;5024117;28;20177;-86
2022/03/14 14:02:07;;;;;;;29.47;1.60;;;;;;;;;;5018604;28;20188;-87
2022/03/14 14:05:12;;;;;;;25.70;1.80;;;;;;;;;;5018677;28;20594;-87
2022/03/14 14:08:34;;;;;;;1.17;0.50;;;;;;;;;;5030892;28;20203;-86
2022/03/14 14:12:09;;;;;;;6.50;0.77;;;;;;;;;;5032328;28;20631;-86
2022/03/14 14:15:13;;;;;;;1.73;0.50;;;;;;;;;;5020399;28;20215;-87
2022/03/14 14:18:20;;;;;;;3.33;0.40;;;;;;;;;;5019738;28;20188;-86
2022/03/14 14:21:24;;;;;;;0.97;0.47;;;;;;;;;;5001275;28;20176;-86
2022/03/14 14:24:31;;;;;;;1.90;0.50;;;;;;;;;;5011970;28;20213;-85
2022/03/14 14:27:51;;;;;;;0.50;0.40;;;;;;;;;;5011553;28;20517;-86
2022/03/14 14:30:56;;;;;;;0.50;0.47;;;;;;;;;;5022183;28;20197;-86
2022/03/14 14:34:00;;;;;;;4.33;0.50;;;;;;;;;;5031441;28;20200;-83
2022/03/14 14:37:05;;;;;;;1.60;0.50;;;;;;;;;;5019282;28;20227;-83
2022/03/14 14:40:09;;;;;;;1.87;0.70;;;;;;;;;;5048375;28;20540;-83
2022/03/14 14:43:14;;;;;;;0.70;0.50;;;;;;;;;;5031780;28;20655;-84
2022/03/14 14:46:18;;;;;;;1.90;0.50;;;;;;;;;;5030592;28;20251;-84
2022/03/14 14:49:23;;;;;;;3.53;0.50;;;;;;;;;;5019032;28;20548;-83
2022/03/14 14:52:27;;;;;;;2.30;0.60;;;;;;;;;;5020440;28;20512;-84
2022/03/14 14:55:33;;;;;;;1.40;0.50;;;;;;;;;;5043501;28;20552;-83
2022/03/14 14:58:37;;;;;;;1.77;0.50;;;;;;;;;;5043302;28;20512;-85
2022/03/14 15:01:41;;;;;;;2.00;0.50;;;;;;;;;;5042580;28;20188;-83
2022/03/14 15:04:46;;;;;;;2.23;0.73;;;;;;;;;;5019196;28;20563;-83
2022/03/14 15:07:51;;;;;;;3.30;0.60;;;;;;;;;;5020309;28;20192;-83
2022/03/14 15:10:55;;;;;;;3.07;0.80;;;;;;;;;;5032457;28;20643;-83
2022/03/14 15:13:59;;;;;;;1.13;0.70;;;;;;;;;;5031973;28;20195;-83
2022/03/14 15:17:03;;;;;;;0.70;0.50;;;;;;;;;;5032069;28;20678;-84
2022/03/14 15:20:12;;;;;;;0.83;0.50;;;;;;;;;;5033699;28;20180;-83
2022/03/14 15:23:17;;;;;;;1.60;0.47;;;;;;;;;;5043746;28;20176;-84
2022/03/14 15:26:25;;;;;;;0.60;0.40;;;;;;;;;;5032515;28;20228;-83
2022/03/14 15:29:29;;;;;;;1.90;0.47;;;;;;;;;;5056668;28;20180;-83
2022/03/14 15:32:34;;;;;;;0.97;0.70;;;;;;;;;;5031718;28;20180;-83
2022/03/14 15:35:39;;;;;;;2.50;0.77;;;;;;;;;;5031995;28;20219;-84
2022/03/14 15:38:43;;;;;;;1.27;0.60;;;;;;;;;;5031598;28;20635;-83
2022/03/14 15:41:47;;;;;;;1.60;0.60;;;;;;;;;;5043486;28;20635;-83
2022/03/14 15:44:52;;;;;;;0.80;0.50;;;;;;;;;;5055877;28;20208;-84
2022/03/14 15:47:58;;;;;;;3.43;0.60;;;;;;;;;;5033089;28;20180;-83
2022/03/14 15:51:07;;;;;;;1.00;0.70;;;;;;;;;;5020450;28;20195;-84
2022/03/14 15:54:11;;;;;;;3.27;0.70;;;;;;;;;;5043217;28;20199;-84
2022/03/14 15:57:18;;;;;;;4.90;1.10;;;;;;;;;;5032377;28;20199;-84
2022/03/14 16:00:22;;;;;;;19.47;1.90;;;;;;;;;;5055559;28;20646;-84
2022/03/14 16:03:27;;;;;;;8.63;4.77;;;;;;;;;;5036987;28;20207;-87
2022/03/14 16:06:34;;;;;;;7.03;4.97;;;;;;;;;;5022299;28;20231;-88
2022/03/14 16:09:38;;;;;;;4.70;3.90;;;;;;;;;;5034511;28;20188;-86
2022/03/14 16:12:43;;;;;;;3.47;1.70;;;;;;;;;;5037586;28;20524;-86
2022/03/14 16:15:50;;;;;;;11.10;9.37;;;;;;;;;;5035396;28;20212;-86
2022/03/14 16:18:55;;;;;;;3.00;2.40;;;;;;;;;;5024374;28;20180;-86
2022/03/14 16:22:00;;;;;;;1.30;1.10;;;;;;;;;;5033955;28;20500;-87
2022/03/14 16:25:05;;;;;;;1.53;0.97;;;;;;;;;;5013856;28;20209;-87
2022/03/14 16:28:09;;;;;;;4.57;1.00;;;;;;;;;;5025075;28;20185;-86
2022/03/14 16:31:13;;;;;;;8.30;1.10;;;;;;;;;;5015909;28;20173;-87
2022/03/14 16:34:18;;;;;;;1.23;0.70;;;;;;;;;;5024769;28;20184;-86
2022/03/14 16:37:22;;;;;;;1.93;1.33;;;;;;;;;;5033467;28;20192;-86
2022/03/14 16:40:26;;;;;;;2.87;2.00;;;;;;;;;;5044165;28;20184;-86
2022/03/14 16:43:31;;;;;;;1.90;1.33;;;;;;;;;;5021915;28;20204;-86
2022/03/14 16:46:35;;;;;;;0.80;0.70;;;;;;;;;;5021213;28;20224;-84
2022/03/14 16:49:40;;;;;;;2.43;0.90;;;;;;;;;;5021900;28;20192;-87
2022/03/14 16:52:44;;;;;;;1.40;1.00;;;;;;;;;;5012460;28;20517;-86
2022/03/14 16:55:51;;;;;;;1.80;1.20;;;;;;;;;;5022988;28;20220;-86
2022/03/14 16:58:55;;;;;;;2.17;1.20;;;;;;;;;;5024722;28;20195;-86
2022/03/14 17:01:59;;;;;;;2.47;0.77;;;;;;;;;;5025421;28;20208;-86
2022/03/14 17:05:03;;;;;;;1.50;0.60;;;;;;;;;;5014432;28;20220;-87
2022/03/14 17:08:08;;;;;;;0.73;0.50;;;;;;;;;;5015856;28;20192;-88
2022/03/14 17:11:13;;;;;;;2.63;0.73;;;;;;;;;;5034083;28;20192;-86
2022/03/14 17:14:17;;;;;;;1.80;0.80;;;;;;;;;;5003634;28;20196;-86
2022/03/14 17:17:24;;;;;;;0.77;0.73;;;;;;;;;;5044449;28;20539;-87
2022/03/14 17:20:34;;;;;;;3.77;1.60;;;;;;;;;;5032716;28;20180;-86
2022/03/14 17:23:38;;;;;;;1.80;1.30;;;;;;;;;;5001776;28;20181;-86
2022/03/14 17:26:43;;;;;;;2.13;1.00;;;;;;;;;;5012991;28;20556;-86
2022/03/14 17:29:47;;;;;;;2.07;1.07;;;;;;;;;;5014745;28;20172;-86
2022/03/14 17:32:52;;;;;;;2.90;1.00;;;;;;;;;;5017818;28;20620;-86
2022/03/14 17:35:56;;;;;;;1.80;1.10;;;;;;;;;;5035617;28;20565;-86
2022/03/14 17:39:00;;;;;;;2.57;0.80;;;;;;;;;;5032491;28;20176;-87
2022/03/14 17:42:05;;;;;;;0.80;0.57;;;;;;;;;;5031873;28;20184;-87
2022/03/14 17:45:09;;;;;;;1.37;0.90;;;;;;;;;;5021536;28;20227;-85
2022/03/14 17:48:16;;;;;;;4.60;0.80;;;;;;;;;;5019397;28;20192;-86
2022/03/14 17:51:20;;;;;;;1.90;0.80;;;;;;;;;;5032334;28;20176;-86
2022/03/14 17:54:24;;;;;;;0.90;0.57;;;;;;;;;;5001162;28;20180;-86
2022/03/14 17:57:28;;;;;;;4.73;0.80;;;;;;;;;;5031127;28;20184;-86
2022/03/14 18:00:34;;;;;;;1.83;0.63;;;;;;;;;;5001145;28;20201;-86
2022/03/14 18:03:38;;;;;;;2.20;0.60;;;;;;;;;;5011650;28;20564;-86
2022/03/14 18:06:42;;;;;;;0.97;0.60;;;;;;;;;;5014965;28;20216;-86
2022/03/14 18:09:47;;;;;;;2.87;0.67;;;;;;;;;;5037398;28;20199;-86
2022/03/14 18:12:51;;;;;;;5.53;1.20;;;;;;;;;;5040281;28;20176;-86
2022/03/14 18:15:55;;;;;;;3.77;0.90;;;;;;;;;;5039409;28;20207;-85
2022/03/14 18:18:59;;;;;;;4.63;1.67;;;;;;;;;;5019747;28;20551;-86
2022/03/14 18:22:05;;;;;;;3.83;2.10;;;;;;;;;;5027698;28;20188;-87
2022/03/14 18:25:11;;;;;;;2.10;0.87;;;;;;;;;;5031328;28;20694;-87